Latest Weather Observations for Marree Airport

IDS60801

Issued at 4:05 pm CST Tuesday 2 September 2014 (issued every 30 minutes, with the page automatically refreshed every 10 minutes)

About weather observations | Map of weather stations | Latest weather observations for SA | Other Formats
Station Details ID: 017126 Name: MARREE AERO Lat: -29.66 Lon: 138.07 Height: 50.0 m
Data from the previous 72 hours. | See also: Recent months for locations in South Australia
Date/Time
CST
Temp
°C
App
Temp
°C
Dew
Point
Rel
Hum
%
Delta-T
°C
Wind Press
QNH
hPa
Press
MSL
hPa
Rain
since 9 am
mm
Dir
 
Spd
km/h
Gust
km/h
Spd
kts
Gust
kts
02/04:00pm 18.3 12.0 1.8 33 7.4 SSW 24 32 13 17 1023.9 - 0.0
02/03:30pm 18.1 11.5 2.0 34 7.3 S 26 39 14 21 1023.7 - 0.0
02/03:00pm 18.4 11.5 2.3 34 7.3 SSW 28 39 15 21 1023.5 1023.4 0.0
02/02:30pm 18.4 11.8 1.9 33 7.5 S 26 35 14 19 1024.1 - 0.0
02/02:00pm 18.0 11.4 2.3 35 7.2 S 26 39 14 21 1024.6 - 0.0
02/01:30pm 17.7 11.5 2.1 35 7.1 S 24 33 13 18 1024.7 - 0.0
02/01:00pm 17.0 10.4 2.2 37 6.7 SSW 26 41 14 22 1025.1 - 0.0
02/12:30pm 17.1 10.2 2.3 37 6.7 S 28 41 15 22 1025.6 - 0.0
02/12:00pm 16.2 10.0 2.2 39 6.2 S 24 35 13 19 1025.7 1025.6 0.0
02/11:30am 15.7 8.0 3.2 43 5.7 S 33 44 18 24 1025.8 - 0.0
02/11:00am 15.6 8.0 3.7 45 5.5 S 33 46 18 25 1026.5 - 0.0
02/10:30am 14.5 7.4 3.6 48 5.0 S 30 41 16 22 1027.1 - 0.0
02/10:00am 14.2 6.7 4.2 51 4.6 S 33 43 18 23 1026.9 - 0.0
02/09:30am 13.0 6.4 4.2 55 4.0 S 28 39 15 21 1027.2 - 0.0
02/09:00am 12.0 5.4 4.0 58 3.6 S 28 37 15 20 1027.3 1027.2 0.0
02/08:30am 10.9 4.7 4.1 63 3.0 S 26 33 14 18 1027.0 - 0.0
02/08:00am 9.4 6.0 4.2 70 2.3 S 11 13 6 7 1026.7 - 0.0
02/07:30am 8.6 4.9 4.2 74 1.9 S 13 19 7 10 1026.3 - 0.0
02/07:00am 7.4 3.2 3.6 77 1.6 S 15 17 8 9 1025.8 - 0.0
02/06:30am 7.6 3.7 3.6 76 1.7 S 13 20 7 11 1025.7 - 0.0
02/06:00am 8.0 3.0 3.8 75 1.8 S 19 20 10 11 1025.2 1025.1 0.0
02/05:30am 8.4 3.3 4.0 74 1.9 S 20 26 11 14 1024.5 - 0.0
02/05:00am 9.0 3.5 4.0 71 2.2 S 22 30 12 16 1024.5 - 0.0
02/04:30am 8.9 3.0 4.1 72 2.1 SSW 24 28 13 15 1023.8 - 0.0
02/04:00am 9.4 3.6 4.4 71 2.2 S 24 32 13 17 1023.5 - 0.0
02/03:30am 10.0 4.6 4.6 69 2.4 SSW 22 30 12 16 1023.5 - 0.0
02/03:00am 10.3 4.6 4.7 68 2.5 S 24 30 13 16 1023.5 1023.4 0.0
02/02:30am 10.6 4.9 4.7 67 2.7 SSW 24 30 13 16 1023.5 - 0.0
02/02:00am 10.9 4.8 4.8 66 2.8 SSW 26 32 14 17 1023.6 - 0.0
02/01:30am 11.3 4.5 5.2 66 2.8 S 30 39 16 21 1023.4 - 0.0
02/01:00am 11.5 5.4 4.9 64 3.0 S 26 33 14 18 1023.3 - 0.0
02/12:30am 11.7 4.3 4.9 63 3.1 S 33 39 18 21 1023.2 - 0.0
02/12:00am 12.7 5.5 4.9 59 3.6 SSW 32 41 17 22 1023.0 1022.9 0.0
 
Date/Time
CST
Temp
°C
App
Temp
°C
Dew
Point
Rel
Hum
%
Delta-T
°C
Wind Press
QNH
hPa
Press
MSL
hPa
Rain
since 9 am
mm
Dir
 
Spd
km/h
Gust
km/h
Spd
kts
Gust
kts
01/11:30pm 13.3 5.1 5.0 57 3.9 SSW 37 46 20 25 1022.6 - 0.0
01/11:00pm 13.7 5.7 5.8 59 3.7 SSW 37 48 20 26 1022.2 - 0.0
01/10:30pm 14.1 6.5 5.7 57 4.0 SSW 35 46 19 25 1021.9 - 0.0
01/10:00pm 14.4 7.5 6.5 59 3.8 SSW 32 41 17 22 1022.0 - 0.0
01/09:30pm 14.9 8.6 7.2 60 3.8 SSW 30 46 16 25 1021.4 - 0.0
01/09:28pm 14.6 8.7 7.4 62 3.6 SW 28 43 15 23 1021.5 - 0.0
01/09:00pm 14.2 10.1 7.7 65 3.2 SSW 19 20 10 11 1021.0 1020.9 0.0
01/08:30pm 15.0 10.4 8.0 63 3.5 SW 22 26 12 14 1020.6 - 0.0
01/08:00pm 15.4 11.1 7.7 60 3.8 SW 20 26 11 14 1020.2 - 0.0
01/07:30pm 15.7 11.6 7.7 59 4.0 SSW 19 24 10 13 1019.7 - 0.0
01/07:00pm 17.1 11.7 8.0 55 4.6 SW 26 35 14 19 1018.9 - 0.0
01/06:30pm 17.2 11.8 7.8 54 4.8 SW 26 33 14 18 1018.2 - 0.0
01/06:00pm 17.6 12.5 7.6 52 5.0 SW 24 30 13 16 1017.6 1017.5 0.0
01/05:30pm 17.9 12.5 7.9 52 5.1 SW 26 37 14 20 1017.3 - 0.0
01/05:00pm 18.1 12.0 8.4 53 5.0 SSW 30 37 16 20 1016.9 - 0.0
01/04:30pm 18.0 11.7 9.1 56 4.6 SW 32 41 17 22 1016.5 - 0.0
01/04:00pm 17.8 13.5 10.7 63 3.8 SW 24 33 13 18 1016.5 - 0.0
01/03:30pm 16.6 10.4 11.3 71 2.9 SW 35 48 19 26 1016.1 - 0.0
01/03:00pm 19.8 14.2 7.2 44 6.4 SW 26 33 14 18 1015.9 1015.8 0.0
01/02:30pm 20.4 15.0 6.4 40 7.0 SSW 24 32 13 17 1015.0 - 0.0
01/02:00pm 20.5 15.0 7.5 43 6.7 SSW 26 32 14 17 1015.3 - 0.0
01/01:30pm 20.4 15.3 7.7 44 6.6 S 24 32 13 17 1015.4 - 0.0
01/01:00pm 20.9 13.8 7.9 43 6.8 S 35 43 19 23 1016.0 - 0.0
01/12:30pm 21.0 14.0 8.3 44 6.7 SSW 35 44 19 24 1016.1 - 0.0
01/12:00pm 21.8 14.1 8.7 43 6.9 SSW 39 54 21 29 1015.9 1015.8 0.0
01/11:30am 22.5 15.1 8.2 40 7.5 S 37 50 20 27 1015.9 - 0.0
01/11:00am 22.5 14.8 7.1 37 8.0 S 37 46 20 25 1015.6 - 0.0
01/10:30am 21.8 13.0 5.7 35 8.1 S 41 50 22 27 1015.5 - 0.0
01/10:00am 21.4 13.4 4.0 32 8.4 S 35 46 19 25 1015.2 - 0.0
01/09:48am 21.4 13.8 2.6 29 8.9 S 32 43 17 23 1014.7 - 0.0
01/09:30am 20.1 15.4 -1.7 23 9.3 SW 13 20 7 11 1015.2 - 0.0
01/09:00am 16.9 13.5 -1.7 28 7.7 WSW 6 9 3 5 1015.1 1015.0 0.0
01/08:30am 14.8 11.5 -1.3 33 6.6 W 6 9 3 5 1014.9 - 0.0
01/08:00am 12.9 10.7 -1.4 37 5.7 CALM 0 0 0 0 1014.5 - 0.0
01/07:30am 10.9 8.7 -1.5 42 4.9 CALM 0 4 0 2 1014.4 - 0.0
01/07:00am 9.2 5.3 -1.5 47 4.1 E 9 15 5 8 1014.1 - 0.0
01/06:30am 9.1 5.8 -1.6 47 4.1 E 6 7 3 4 1014.0 - 0.0
01/06:00am 9.6 5.7 -1.7 45 4.4 NE 9 11 5 6 1013.5 1013.3 0.0
01/05:30am 11.4 7.4 -2.0 39 5.2 N 9 11 5 6 1013.4 - 0.0
01/05:00am 11.4 6.7 -1.7 40 5.1 NW 13 17 7 9 1013.1 - 0.0
01/04:30am 10.8 4.8 -1.3 43 4.8 WSW 20 26 11 14 1012.9 - 0.0
01/04:00am 11.2 7.9 -0.9 43 4.8 NW 6 9 3 5 1012.5 - 0.0
01/03:30am 12.8 9.0 -1.1 38 5.6 N 9 11 5 6 1012.4 - 0.0
01/03:00am 12.4 9.0 -0.8 40 5.4 NNE 7 11 4 6 1012.2 1012.0 0.0
01/02:30am 13.0 8.7 -1.3 37 5.8 N 11 13 6 7 1012.4 - 0.0
01/02:00am 12.4 9.0 -2.2 36 5.7 NNW 6 6 3 3 1012.9 - 0.0
01/01:30am 13.8 10.7 -2.6 32 6.5 N 4 6 2 3 1013.1 - 0.0
01/01:00am 13.6 9.2 -2.3 33 6.3 N 11 13 6 7 1012.8 - 0.0
01/12:30am 13.6 8.9 -1.9 34 6.2 N 13 15 7 8 1012.8 - 0.0
01/12:00am 13.7 9.0 -1.9 34 6.3 N 13 15 7 8 1013.1 1012.9 0.0
 
Date/Time
CST
Temp
°C
App
Temp
°C
Dew
Point
Rel
Hum
%
Delta-T
°C
Wind Press
QNH
hPa
Press
MSL
hPa
Rain
since 9 am
mm
Dir
 
Spd
km/h
Gust
km/h
Spd
kts
Gust
kts
31/11:30pm 14.5 9.8 -2.0 32 6.7 N 13 15 7 8 1013.3 - 0.0
31/11:00pm 15.2 10.5 -1.8 31 6.9 N 13 15 7 8 1013.4 - 0.0
31/10:30pm 16.0 10.5 -2.0 29 7.4 NNE 17 20 9 11 1013.7 - 0.0
31/10:00pm 16.1 10.6 -1.9 29 7.4 NNE 17 19 9 10 1014.0 - 0.0
31/09:30pm 16.5 11.1 -1.6 29 7.5 N 17 19 9 10 1014.4 - 0.0
31/09:00pm 17.2 11.8 -1.4 28 7.8 N 17 19 9 10 1014.4 1014.3 0.0
31/08:30pm 17.5 12.1 -1.7 27 8.0 N 17 19 9 10 1014.5 - 0.0
31/08:00pm 17.8 12.8 -1.4 27 8.1 N 15 15 8 8 1014.5 - 0.0
31/07:30pm 18.7 14.0 -1.7 25 8.6 N 13 15 7 8 1014.5 - 0.0
31/07:00pm 20.9 15.8 -2.2 21 9.9 N 15 17 8 9 1014.4 - 0.0
31/06:30pm 22.1 16.5 -2.6 19 10.6 N 17 20 9 11 1014.3 - 0.0
31/06:00pm 23.6 17.4 -2.8 17 11.4 N 20 24 11 13 1014.4 1014.3 0.0
31/05:30pm 24.8 18.2 -3.6 15 12.2 NNW 22 30 12 16 1014.3 - 0.0
31/05:00pm 25.7 18.7 -3.8 14 12.7 NNW 24 30 13 16 1014.3 - 0.0
31/04:30pm 26.1 18.6 -4.4 13 13.1 N 26 39 14 21 1014.4 - 0.0
31/04:00pm 26.2 19.6 -3.4 14 12.9 N 22 30 12 16 1014.5 - 0.0
31/03:30pm 26.3 19.3 -3.3 14 13.0 NW 24 32 13 17 1014.7 - 0.0
31/03:00pm 26.7 19.5 -2.1 15 12.9 NNW 26 39 14 21 1015.1 1015.1 0.0
31/02:30pm 26.6 19.0 -2.1 15 12.9 N 28 39 15 21 1015.3 - 0.0
31/02:00pm 27.3 20.2 -1.6 15 13.2 NW 26 43 14 23 1015.5 - 0.0
31/01:30pm 26.3 18.8 -1.5 16 12.6 N 28 37 15 20 1015.9 - 0.0
31/01:00pm 26.8 20.1 -1.1 16 12.8 NNW 24 37 13 20 1016.6 - 0.0
31/12:30pm 25.8 18.7 -1.1 17 12.2 NNW 26 39 14 21 1017.3 - 0.0
31/12:00pm 25.6 18.5 -1.2 17 12.1 NNW 26 41 14 22 1017.8 1017.8 0.0
31/11:30am 25.2 18.5 -0.8 18 11.8 NW 24 39 13 21 1018.4 - 0.0
31/11:00am 24.4 17.0 -0.7 19 11.4 N 28 41 15 22 1018.8 - 0.0
31/10:30am 23.6 16.6 -0.6 20 10.9 N 26 35 14 19 1019.4 - 0.0
31/10:00am 22.1 15.1 -0.6 22 10.1 N 26 32 14 17 1019.5 - 0.0
31/09:30am 20.0 13.4 -0.6 25 9.0 N 24 28 13 15 1019.6 - 0.0
31/09:00am 17.8 13.7 -0.5 29 7.8 NE 11 15 6 8 1019.9 1019.9 0.0
31/08:30am 15.2 11.4 -0.9 33 6.7 E 9 11 5 6 1020.0 - 0.0
31/08:00am 12.2 8.2 -2.0 37 5.6 SE 9 13 5 7 1019.8 - 0.0
31/07:30am 10.3 5.9 -2.4 41 4.8 SSE 11 13 6 7 1019.7 - 0.0
31/07:00am 8.3 3.9 -2.3 47 4.0 S 11 15 6 8 1019.2 - 0.0
31/06:30am 7.1 2.7 -2.3 51 3.5 S 11 13 6 7 1019.1 - 0.0
31/06:00am 7.3 1.7 -2.7 49 3.6 SE 17 19 9 10 1018.7 1018.7 0.0
31/05:30am 7.3 1.7 -2.7 49 3.7 SE 17 19 9 10 1018.5 - 0.0
31/05:00am 6.7 1.8 -3.0 50 3.5 SSE 13 17 7 9 1018.7 - 0.0
31/04:30am 7.1 2.3 -2.6 50 3.6 SSE 13 15 7 8 1018.3 - 0.0
31/04:00am 6.9 2.5 -2.8 50 3.5 SSE 11 11 6 6 1018.3 - 0.0
31/03:30am 8.1 4.6 -1.7 50 3.7 SSE 7 9 4 5 1018.3 - 0.0
31/03:00am 8.4 5.8 -1.7 49 3.8 ENE 2 7 1 4 1018.6 1018.6 0.0
31/02:30am 8.8 6.6 -1.6 48 4.0 CALM 0 0 0 0 1018.7 - 0.0
31/02:00am 9.5 7.0 -1.2 47 4.2 ENE 2 6 1 3 1019.1 - 0.0
31/01:30am 9.7 5.4 -1.3 46 4.3 ENE 11 13 6 7 1019.2 - 0.0
31/01:00am 10.4 6.2 -1.0 45 4.5 ENE 11 13 6 7 1019.6 - 0.0
31/12:30am 12.0 9.9 -0.5 42 5.1 CALM 0 0 0 0 1019.8 - 0.0
31/12:00am 12.7 10.6 -0.9 39 5.5 CALM 0 0 0 0 1020.0 1020.0 0.0
 
Date/Time
CST
Temp
°C
App
Temp
°C
Dew
Point
Rel
Hum
%
Delta-T
°C
Wind Press
QNH
hPa
Press
MSL
hPa
Rain
since 9 am
mm
Dir
 
Spd
km/h
Gust
km/h
Spd
kts
Gust
kts
30/11:30pm 12.6 10.5 -0.6 40 5.4 CALM 0 0 0 0 1020.1 - -
30/11:00pm 13.5 9.2 -1.3 36 6.0 WSW 11 13 6 7 1020.2 - 0.0
30/10:30pm 13.7 9.1 -1.1 36 6.0 WSW 13 15 7 8 1020.5 - 0.0
30/10:00pm 13.9 8.9 -1.3 35 6.2 WSW 15 17 8 9 1020.6 - 0.0
30/09:30pm 13.7 8.7 -1.1 36 6.0 WSW 15 17 8 9 1020.6 - 0.0
30/09:00pm 14.4 9.7 -1.6 33 6.5 W 13 15 7 8 1020.5 1020.5 0.0
30/08:30pm 15.3 10.7 -1.3 32 6.8 W 13 15 7 8 1020.3 - 0.0
30/08:00pm 16.1 11.8 -1.9 29 7.4 W 11 15 6 8 1020.3 - 0.0
30/07:30pm 17.2 11.7 -1.9 27 7.9 WNW 17 17 9 9 1020.1 - 0.0
30/07:00pm 19.0 14.3 -2.0 24 8.8 NW 13 15 7 8 1019.9 - 0.0
30/06:30pm 20.4 16.0 -2.6 21 9.7 NNW 11 13 6 7 1019.8 - 0.0
30/06:00pm 22.7 17.9 -2.8 18 10.9 N 13 15 7 8 1019.7 1019.7 0.0
30/05:30pm 24.2 19.3 -3.2 16 11.8 N 13 17 7 9 1019.6 - 0.0
30/05:00pm 24.9 20.1 -2.6 16 12.1 N 13 20 7 11 1019.5 - 0.0
30/04:30pm 25.2 20.7 -3.2 15 12.4 NNE 11 17 6 9 1019.5 - 0.0

Other Formats:

Comma delimited format used in spreadsheet applications
http://www.bom.gov.au/fwo/IDS60801/IDS60801.95480.axf

JavaScript Object Notation format (JSON) in row-major order
http://www.bom.gov.au/fwo/IDS60801/IDS60801.95480.json